Terminal Aerodrome Forecast
Issued by NWS

Home | Current Version | Previous Version | Text Only | Print | Product List | Glossary Off
Versions: 1 2 3 4 5 6 7 8 9 10 11 12 13 14

000
FTUS43 KBIS 171726
TAFMOT
TAF
KMOT 171726Z 1718/1818 24014G24KT P6SM SKC
     FM180000 20009KT P6SM SKC WS020/24035KT
     FM180600 21013KT P6SM FEW150 FEW250 WS020/25045KT
     FM180900 25019G33KT P6SM FEW150 FEW250 WS020/28045KT
     FM181400 27026G39KT P6SM FEW250=

USA.gov is the U.S. government's official web portal to all federal, state and local government web resources and services.